Craigville, Indiana
Current Conditions -  °F | °C
As of 1:54 AM on Wednesday 22 Oct 2014 (Local Time) from KFWA Reporting Station
Few Clouds Few Clouds  
Wind Chill: 35°   Ceiling: Unl
Heat Index: 39°   Visibility: 10mi
Dew Point: 34°   Wind: 6mph
Humidity: 82%   Direction: 350°N
Pressure: 30.24"   Gusts: NA
Location:  40.78°N, 85.09°W
Report Text: KFWA 220554Z 35005KT 10SM FEW047 04/01 A3024 RMK AO2 SLP244 T00390011 10089 20039 51002
Loading
Personal Weather Stations






























Interactive Weather Map
Tropical Storm Tracking
New forecast layout! Learn more

10-Day Weather Forecast

Advertisements
Track Severe Weather on mobile